createdAt,value
2023-04-24T00:02:08.118Z,10.60
2023-04-24T00:04:35.506Z,10.60
2023-04-24T00:07:02.679Z,10.60
2023-04-24T00:09:29.844Z,10.50
2023-04-24T00:11:57.198Z,10.60
2023-04-24T00:14:24.457Z,10.70
2023-04-24T00:16:51.978Z,10.60
2023-04-24T00:19:22.428Z,10.60
2023-04-24T00:21:52.838Z,10.60
2023-04-24T00:24:19.956Z,10.70
2023-04-24T00:26:47.128Z,10.80
2023-04-24T00:29:14.404Z,10.80
2023-04-24T00:31:41.572Z,10.70
2023-04-24T00:34:08.858Z,10.70
2023-04-24T00:36:36.191Z,10.70
2023-04-24T00:39:03.466Z,10.60
2023-04-24T00:41:31.543Z,10.70
2023-04-24T00:43:58.701Z,10.70
2023-04-24T00:46:25.936Z,10.70
2023-04-24T00:48:53.534Z,10.60
2023-04-24T00:51:21.124Z,10.50
2023-04-24T00:53:48.407Z,10.60
2023-04-24T00:56:16.081Z,10.80
2023-04-24T00:58:44.033Z,10.80
2023-04-24T01:01:12.804Z,10.80
2023-04-24T01:03:41.717Z,10.70
2023-04-24T01:06:10.409Z,10.80
2023-04-24T01:08:38.159Z,10.80
2023-04-24T01:11:06.232Z,10.80
2023-04-24T01:13:34.883Z,10.90
2023-04-24T01:16:02.750Z,10.80
2023-04-24T01:18:30.174Z,10.80
2023-04-24T01:21:01.176Z,10.90
2023-04-24T01:23:28.439Z,11.00
2023-04-24T01:25:55.674Z,10.90
2023-04-24T01:28:23.068Z,10.80
2023-04-24T01:30:50.288Z,10.80
2023-04-24T01:33:19.571Z,10.80
2023-04-24T01:35:47.046Z,10.70
2023-04-24T01:38:14.238Z,10.60
2023-04-24T01:40:41.422Z,10.50
2023-04-24T01:43:08.879Z,10.50
2023-04-24T01:45:36.134Z,10.50
2023-04-24T01:48:03.415Z,10.60
2023-04-24T01:50:31.507Z,10.60
2023-04-24T01:52:58.640Z,10.80
2023-04-24T01:55:25.878Z,10.80
2023-04-24T01:57:56.816Z,10.80
2023-04-24T02:00:25.189Z,11.00
2023-04-24T02:02:52.426Z,10.80
2023-04-24T02:05:19.903Z,10.90
2023-04-24T02:07:47.098Z,10.70
2023-04-24T02:10:14.279Z,10.70
2023-04-24T02:12:41.409Z,10.60
2023-04-24T02:15:08.942Z,10.60
2023-04-24T02:17:36.095Z,10.60
2023-04-24T02:20:03.534Z,10.70
2023-04-24T02:22:33.079Z,10.70
2023-04-24T02:25:00.824Z,10.80
2023-04-24T02:27:27.893Z,10.80
2023-04-24T02:29:54.956Z,10.80
2023-04-24T02:32:22.043Z,10.70
2023-04-24T02:34:49.112Z,10.60
2023-04-24T02:37:16.191Z,10.50
2023-04-24T02:39:43.555Z,10.60
2023-04-24T02:42:10.879Z,10.40
2023-04-24T02:44:37.978Z,10.40
2023-04-24T02:47:05.160Z,10.30
2023-04-24T02:49:32.282Z,10.20
2023-04-24T02:51:59.349Z,10.00
2023-04-24T02:54:26.415Z,9.90
2023-04-24T02:56:53.582Z,9.80
2023-04-24T02:59:20.885Z,9.70
2023-04-24T03:01:48.106Z,9.60
2023-04-24T03:04:15.457Z,9.50
2023-04-24T03:06:42.780Z,9.50
2023-04-24T03:09:09.882Z,9.40
2023-04-24T03:11:37.024Z,9.30
2023-04-24T03:14:04.115Z,9.30
2023-04-24T03:16:31.245Z,9.20
2023-04-24T03:18:58.423Z,9.20
2023-04-24T03:21:25.649Z,9.20
2023-04-24T03:23:52.683Z,9.10
2023-04-24T03:26:19.828Z,9.00
2023-04-24T03:28:46.918Z,8.90
2023-04-24T03:31:13.986Z,8.80
2023-04-24T03:33:41.089Z,8.80
2023-04-24T03:36:08.627Z,8.80
2023-04-24T03:38:35.691Z,8.70
2023-04-24T03:41:03.090Z,8.80
2023-04-24T03:43:30.180Z,8.80
2023-04-24T03:45:57.298Z,8.80
2023-04-24T03:48:24.509Z,8.70
2023-04-24T03:50:51.652Z,8.80
2023-04-24T03:53:18.700Z,8.70
2023-04-24T03:55:47.529Z,8.70
2023-04-24T03:58:15.632Z,8.60
2023-04-24T04:00:42.900Z,8.70
2023-04-24T04:03:10.230Z,8.70
2023-04-24T04:05:37.468Z,8.60
2023-04-24T04:08:04.543Z,8.60
2023-04-24T04:10:31.864Z,8.50
2023-04-24T04:12:58.944Z,8.50
2023-04-24T04:15:26.095Z,8.40
2023-04-24T04:17:53.241Z,8.40
2023-04-24T04:20:21.773Z,8.40
2023-04-24T04:22:51.239Z,8.30
2023-04-24T04:25:20.420Z,8.20
2023-04-24T04:27:49.587Z,8.10
2023-04-24T04:30:16.721Z,8.00
2023-04-24T04:32:43.877Z,8.00
2023-04-24T04:35:11.277Z,8.00
2023-04-24T04:37:39.212Z,7.90
2023-04-24T04:40:07.930Z,7.90
2023-04-24T04:42:35.260Z,7.80
2023-04-24T04:45:03.293Z,7.80
2023-04-24T04:47:33.020Z,7.70
2023-04-24T04:50:00.726Z,7.70
2023-04-24T04:52:28.225Z,7.60
2023-04-24T04:54:55.419Z,7.60
2023-04-24T04:57:22.709Z,7.50
2023-04-24T04:59:52.489Z,7.50
2023-04-24T05:02:19.702Z,7.40
2023-04-24T05:04:47.255Z,7.40
2023-04-24T05:07:14.656Z,7.40
2023-04-24T05:09:42.063Z,7.40
2023-04-24T05:12:09.436Z,7.40
2023-04-24T05:14:36.525Z,7.40
2023-04-24T05:17:05.215Z,7.40
2023-04-24T05:19:36.957Z,7.40
2023-04-24T05:22:05.412Z,7.60
2023-04-24T05:24:32.517Z,7.60
2023-04-24T05:27:00.204Z,7.70
2023-04-24T05:29:27.604Z,7.80
2023-04-24T05:31:54.779Z,7.80
2023-04-24T05:34:22.030Z,7.90
2023-04-24T05:36:51.742Z,8.10
2023-04-24T05:39:18.895Z,8.20
2023-04-24T05:41:46.014Z,8.40
2023-04-24T05:44:13.110Z,8.50
2023-04-24T05:46:40.228Z,8.40
2023-04-24T05:49:07.342Z,8.40
2023-04-24T05:51:34.514Z,8.50
2023-04-24T05:54:02.339Z,8.50
2023-04-24T05:56:29.481Z,8.60
2023-04-24T05:58:56.664Z,8.60
2023-04-24T06:01:24.462Z,8.60
2023-04-24T06:03:51.685Z,8.60
2023-04-24T06:06:20.446Z,8.70
2023-04-24T06:08:47.497Z,8.70
2023-04-24T06:11:14.568Z,8.80
2023-04-24T06:13:41.965Z,8.80
2023-04-24T06:16:09.522Z,8.90
2023-04-24T06:18:36.625Z,9.00
2023-04-24T06:21:05.339Z,9.20
2023-04-24T06:23:33.737Z,9.30
2023-04-24T06:26:01.293Z,9.40
2023-04-24T06:28:28.435Z,9.50
2023-04-24T06:30:55.673Z,9.50
2023-04-24T06:33:23.944Z,9.50
2023-04-24T06:35:51.293Z,9.40
2023-04-24T06:38:18.509Z,9.40
2023-04-24T06:40:47.519Z,9.30
2023-04-24T06:43:16.008Z,9.30
2023-04-24T06:45:44.947Z,9.30
2023-04-24T06:48:12.184Z,9.10
2023-04-24T06:50:39.426Z,9.10
2023-04-24T06:53:06.513Z,9.10
2023-04-24T06:55:33.654Z,9.00
2023-04-24T06:58:00.809Z,8.90
2023-04-24T07:00:27.978Z,8.90
2023-04-24T07:02:55.292Z,8.80
2023-04-24T07:05:22.497Z,8.80
2023-04-24T07:07:50.788Z,8.80
2023-04-24T07:10:19.180Z,8.80
2023-04-24T07:12:46.505Z,8.90
2023-04-24T07:15:13.712Z,8.90
2023-04-24T07:17:44.680Z,9.00
2023-04-24T07:20:12.799Z,8.90
2023-04-24T07:22:40.069Z,9.10
2023-04-24T07:25:07.958Z,9.20
2023-04-24T07:27:37.027Z,9.10
2023-04-24T07:30:05.936Z,9.30
2023-04-24T07:32:33.125Z,9.40
2023-04-24T07:35:01.019Z,9.30
2023-04-24T07:37:29.137Z,9.20
2023-04-24T07:39:56.697Z,9.20
2023-04-24T07:42:23.864Z,9.20
2023-04-24T07:44:52.143Z,9.40
2023-04-24T07:47:19.316Z,9.50
2023-04-24T07:49:46.416Z,9.50
2023-04-24T07:52:13.527Z,9.60
2023-04-24T07:54:40.736Z,9.60
2023-04-24T07:57:09.310Z,9.60
2023-04-24T07:59:36.464Z,9.60
2023-04-24T08:02:03.632Z,9.70
2023-04-24T08:04:31.112Z,9.60
2023-04-24T08:06:58.502Z,9.50
2023-04-24T08:09:27.527Z,9.50
2023-04-24T08:11:55.026Z,9.60
2023-04-24T08:14:22.219Z,9.70
2023-04-24T08:16:49.456Z,9.90
2023-04-24T08:19:16.691Z,10.10
2023-04-24T08:21:43.784Z,10.30
2023-04-24T08:24:10.814Z,10.40
2023-04-24T08:26:38.349Z,10.20
2023-04-24T08:29:07.796Z,10.00
2023-04-24T08:31:36.613Z,9.90
2023-04-24T08:34:03.800Z,9.90
2023-04-24T08:36:43.574Z,10.00
2023-04-24T08:39:14.319Z,10.10
2023-04-24T08:41:46.739Z,10.20
2023-04-24T08:44:16.782Z,10.20
2023-04-24T08:46:49.362Z,10.20
2023-04-24T08:49:20.032Z,10.10
2023-04-24T08:51:48.729Z,10.20
2023-04-24T08:54:16.255Z,10.40
2023-04-24T08:56:46.069Z,10.40
2023-04-24T08:59:13.821Z,10.40
2023-04-24T09:01:42.186Z,10.50
2023-04-24T09:04:12.403Z,10.50
2023-04-24T09:06:40.589Z,10.80
2023-04-24T09:09:08.713Z,10.90
2023-04-24T09:11:35.998Z,11.00
2023-04-24T09:14:03.194Z,10.90
2023-04-24T09:16:31.044Z,10.70
2023-04-24T09:18:58.265Z,10.60
2023-04-24T09:21:25.566Z,10.60
2023-04-24T09:24:18.898Z,10.50
2023-04-24T09:26:46.277Z,10.40
2023-04-24T09:29:18.316Z,10.40
2023-04-24T09:31:47.132Z,10.30
2023-04-24T09:34:15.083Z,10.30
2023-04-24T09:36:44.144Z,10.30
2023-04-24T09:39:16.967Z,10.30
2023-04-24T09:41:58.850Z,10.30
2023-04-24T09:44:29.495Z,10.20
2023-04-24T09:46:59.545Z,10.20
2023-04-24T09:49:33.593Z,10.20
2023-04-24T09:52:10.887Z,10.10
2023-04-24T09:54:39.495Z,10.00
2023-04-24T09:57:10.293Z,9.90
2023-04-24T09:59:45.875Z,9.90
2023-04-24T10:02:22.003Z,10.00
2023-04-24T10:05:00.864Z,10.00
2023-04-24T10:07:28.799Z,10.00
2023-04-24T10:09:56.714Z,9.90
2023-04-24T10:12:26.245Z,9.90
2023-04-24T10:14:54.447Z,9.80
2023-04-24T10:17:23.201Z,9.70
2023-04-24T10:19:51.073Z,9.70
2023-04-24T10:22:19.343Z,9.70
2023-04-24T10:24:48.590Z,9.60
2023-04-24T10:27:16.688Z,9.60
2023-04-24T10:29:46.057Z,9.60
2023-04-24T10:32:13.161Z,9.90
2023-04-24T10:34:40.427Z,10.00
2023-04-24T10:37:07.693Z,10.10
2023-04-24T10:39:36.157Z,10.30
2023-04-24T10:42:03.689Z,10.50
2023-04-24T10:44:38.250Z,10.60
2023-04-24T10:47:05.487Z,10.60
2023-04-24T10:49:33.286Z,10.70
2023-04-24T10:52:08.654Z,10.70
2023-04-24T10:54:41.806Z,10.70
2023-04-24T10:57:21.672Z,10.70
2023-04-24T10:59:52.574Z,10.60
2023-04-24T11:02:39.645Z,10.40
2023-04-24T11:05:09.501Z,10.50
2023-04-24T11:08:14.360Z,10.40
2023-04-24T11:10:47.082Z,10.30
2023-04-24T11:13:18.667Z,10.40
2023-04-24T11:15:45.964Z,10.40
2023-04-24T11:18:19.640Z,10.40
2023-04-24T11:20:48.357Z,10.30
2023-04-24T11:23:15.632Z,10.30
2023-04-24T11:25:43.927Z,10.30
2023-04-24T11:28:17.417Z,10.30
2023-04-24T11:30:44.534Z,10.30
2023-04-24T11:33:11.939Z,10.30
2023-04-24T11:35:41.915Z,10.30
2023-04-24T11:40:39.894Z,10.40
2023-04-24T11:43:08.318Z,10.40
2023-04-24T11:45:37.094Z,10.50
2023-04-24T11:48:04.987Z,10.80
2023-04-24T11:50:32.292Z,11.10
2023-04-24T11:53:01.472Z,11.20
2023-04-24T11:55:30.680Z,11.10
2023-04-24T11:58:00.457Z,11.20
2023-04-24T12:00:34.780Z,11.20
2023-04-24T12:03:11.558Z,11.20
2023-04-24T12:05:40.304Z,11.40
2023-04-24T12:08:07.859Z,11.40
2023-04-24T12:10:36.231Z,11.60
2023-04-24T12:13:04.054Z,12.00
2023-04-24T12:15:31.658Z,12.40
2023-04-24T12:18:01.320Z,12.90
2023-04-24T12:20:31.828Z,13.30
2023-04-24T12:23:01.414Z,13.70
2023-04-24T12:25:34.016Z,13.80
2023-04-24T12:28:07.459Z,13.60
2023-04-24T12:30:49.974Z,13.40
2023-04-24T12:33:25.205Z,13.00
2023-04-24T12:35:56.574Z,12.70
2023-04-24T12:38:26.523Z,12.40
2023-04-24T12:41:10.847Z,12.00
2023-04-24T12:43:38.409Z,11.60
2023-04-24T12:46:06.505Z,11.40
2023-04-24T12:48:33.758Z,11.20
2023-04-24T12:51:03.771Z,11.20
2023-04-24T12:53:32.129Z,11.20
2023-04-24T12:55:59.451Z,11.10
2023-04-24T12:58:26.861Z,11.10
2023-04-24T13:00:54.056Z,11.10
2023-04-24T13:03:21.777Z,11.20
2023-04-24T13:05:49.436Z,11.30
2023-04-24T13:08:16.508Z,11.50
2023-04-24T13:10:43.755Z,11.70
2023-04-24T13:13:11.102Z,11.80
2023-04-24T13:15:38.554Z,12.00
2023-04-24T13:18:06.004Z,12.20
2023-04-24T13:20:33.430Z,12.20
2023-04-24T13:23:01.125Z,12.10
2023-04-24T13:25:29.183Z,11.90
2023-04-24T13:27:56.281Z,11.80
2023-04-24T13:30:23.316Z,11.70
2023-04-24T13:32:51.989Z,11.50
2023-04-24T13:35:19.272Z,11.40
2023-04-24T13:37:46.559Z,11.40
2023-04-24T13:40:13.653Z,11.40
2023-04-24T13:42:41.555Z,11.50
2023-04-24T13:47:41.915Z,12.00
2023-04-24T13:50:10.960Z,12.00
2023-04-24T13:52:38.082Z,12.00
2023-04-24T13:55:05.843Z,12.00
2023-04-24T13:57:33.063Z,12.10
2023-04-24T14:00:05.091Z,11.90
2023-04-24T14:02:32.597Z,11.90
2023-04-24T14:05:00.241Z,11.80
2023-04-24T14:07:27.562Z,11.70
2023-04-24T14:09:54.771Z,11.70
2023-04-24T14:12:22.242Z,11.60
2023-04-24T14:14:51.775Z,11.50
2023-04-24T14:17:18.831Z,11.50
2023-04-24T14:19:45.947Z,11.40
2023-04-24T14:22:12.970Z,11.40
2023-04-24T14:24:40.058Z,11.50
2023-04-24T14:27:07.185Z,11.50
2023-04-24T14:29:35.407Z,11.60
2023-04-24T14:32:02.670Z,11.60
2023-04-24T14:34:29.707Z,11.70
2023-04-24T14:36:56.852Z,11.60
2023-04-24T14:39:24.018Z,11.70
2023-04-24T14:41:51.131Z,11.70
2023-04-24T14:44:18.221Z,11.60
2023-04-24T14:46:46.432Z,11.70
2023-04-24T14:49:13.581Z,11.80
2023-04-24T14:51:41.770Z,12.10
2023-04-24T14:54:08.937Z,12.40
2023-04-24T14:56:36.495Z,12.70
2023-04-24T14:59:04.837Z,12.70
2023-04-24T15:01:31.944Z,12.80
2023-04-24T15:03:59.253Z,12.90
2023-04-24T15:06:26.589Z,12.70
2023-04-24T15:08:53.707Z,12.60
2023-04-24T15:11:21.303Z,12.30
2023-04-24T15:13:48.661Z,12.30
2023-04-24T15:16:16.848Z,12.30
2023-04-24T15:18:44.138Z,12.40
2023-04-24T15:21:11.270Z,12.50
2023-04-24T15:23:38.399Z,12.60
2023-04-24T15:26:05.583Z,12.60
2023-04-24T15:28:32.688Z,12.60
2023-04-24T15:31:00.022Z,12.50
2023-04-24T15:33:27.126Z,12.40
2023-04-24T15:35:54.249Z,12.40
2023-04-24T15:38:21.489Z,12.40
2023-04-24T15:40:49.470Z,12.30
2023-04-24T15:43:17.326Z,12.30
2023-04-24T15:45:45.084Z,12.70
2023-04-24T15:48:12.304Z,13.50
2023-04-24T15:50:39.453Z,14.20
2023-04-24T15:53:06.995Z,14.50
2023-04-24T15:55:34.947Z,14.60
2023-04-24T15:58:02.264Z,14.70
2023-04-24T16:00:34.611Z,14.60
2023-04-24T16:03:02.687Z,14.60
2023-04-24T16:05:29.947Z,14.40
2023-04-24T16:07:57.696Z,13.80
2023-04-24T16:10:24.832Z,13.20
2023-04-24T16:12:53.434Z,12.60
2023-04-24T16:15:22.047Z,12.30
2023-04-24T16:17:50.450Z,12.10
2023-04-24T16:20:17.954Z,12.30
2023-04-24T16:22:45.081Z,12.60
2023-04-24T16:25:12.343Z,12.60
2023-04-24T16:27:39.612Z,12.50
2023-04-24T16:30:07.716Z,12.20
2023-04-24T16:32:34.903Z,12.00
2023-04-24T16:35:02.227Z,11.80
2023-04-24T16:37:30.704Z,11.80
2023-04-24T16:39:57.867Z,11.80
2023-04-24T16:42:24.965Z,11.80
2023-04-24T16:44:52.310Z,11.80
2023-04-24T16:47:20.390Z,11.90
2023-04-24T16:49:49.299Z,11.90
2023-04-24T16:52:16.618Z,12.00
2023-04-24T16:54:43.750Z,12.10
2023-04-24T16:57:11.126Z,12.30
2023-04-24T16:59:38.914Z,12.50
2023-04-24T17:02:06.143Z,12.90
2023-04-24T17:04:35.942Z,13.40
2023-04-24T17:07:03.618Z,13.80
2023-04-24T17:09:30.900Z,13.40
2023-04-24T17:11:58.075Z,13.10
2023-04-24T17:14:26.639Z,13.10
2023-04-24T17:16:55.213Z,13.10
2023-04-24T17:19:22.460Z,12.90
2023-04-24T17:21:49.561Z,12.60
2023-04-24T17:24:16.601Z,12.40
2023-04-24T17:26:43.732Z,12.40
2023-04-24T17:29:15.764Z,12.20
2023-04-24T17:31:42.986Z,11.80
2023-04-24T17:34:11.682Z,11.50
2023-04-24T17:36:39.233Z,11.30
2023-04-24T17:39:06.691Z,11.10
2023-04-24T17:41:33.782Z,10.90
2023-04-24T17:44:00.861Z,10.90
2023-04-24T17:46:28.045Z,10.80
2023-04-24T17:48:55.835Z,10.70
2023-04-24T17:51:22.926Z,10.60
2023-04-24T17:53:50.608Z,10.50
2023-04-24T17:56:18.253Z,10.40
2023-04-24T17:58:46.165Z,10.40
2023-04-24T18:01:13.481Z,10.30
2023-04-24T18:03:40.981Z,10.30
2023-04-24T18:06:08.207Z,10.30
2023-04-24T18:08:35.708Z,10.40
2023-04-24T18:11:03.536Z,10.30
2023-04-24T18:13:31.009Z,10.30
2023-04-24T18:15:58.117Z,10.30
2023-04-24T18:18:25.482Z,10.30
2023-04-24T18:20:52.612Z,10.30
2023-04-24T18:23:19.736Z,10.40
2023-04-24T18:25:46.985Z,10.40
2023-04-24T18:28:14.058Z,10.30
2023-04-24T18:30:41.130Z,10.10
2023-04-24T18:33:08.350Z,9.80
2023-04-24T18:35:35.651Z,9.50
2023-04-24T18:38:02.836Z,9.30
2023-04-24T18:40:29.956Z,9.10
2023-04-24T18:42:57.414Z,9.10
2023-04-24T18:45:24.786Z,9.00
2023-04-24T18:47:51.969Z,8.80
2023-04-24T18:50:19.550Z,8.70
2023-04-24T18:52:46.792Z,8.70
2023-04-24T18:55:13.915Z,8.70
2023-04-24T18:57:41.020Z,8.60
2023-04-24T19:00:09.091Z,8.50
2023-04-24T19:02:36.804Z,8.40
2023-04-24T19:05:04.168Z,8.30
2023-04-24T19:07:31.352Z,8.20
2023-04-24T19:09:59.444Z,8.20
2023-04-24T19:12:26.656Z,8.30
2023-04-24T19:14:56.113Z,8.20
2023-04-24T19:17:25.351Z,8.20
2023-04-24T19:19:52.756Z,8.20
2023-04-24T19:22:20.927Z,8.20
2023-04-24T19:24:52.285Z,8.20
2023-04-24T19:27:19.352Z,8.10
2023-04-24T19:29:46.644Z,8.10
2023-04-24T19:32:13.974Z,8.20
2023-04-24T19:34:41.154Z,8.30
2023-04-24T19:37:08.577Z,8.30
2023-04-24T19:39:35.919Z,8.20
2023-04-24T19:42:07.249Z,8.10
2023-04-24T19:44:34.768Z,8.10
2023-04-24T19:47:01.994Z,8.10
2023-04-24T19:49:29.191Z,8.10
2023-04-24T19:51:56.300Z,8.10
2023-04-24T19:54:24.103Z,8.10
2023-04-24T19:56:51.416Z,8.10
2023-04-24T19:59:18.619Z,8.10
2023-04-24T20:01:46.270Z,8.10
2023-04-24T20:04:13.589Z,8.10
2023-04-24T20:06:40.928Z,8.10
2023-04-24T20:09:08.355Z,8.10
2023-04-24T20:11:35.732Z,8.10
2023-04-24T20:14:03.953Z,8.00
2023-04-24T20:16:31.464Z,8.00
2023-04-24T20:18:59.341Z,8.00
2023-04-24T20:21:26.875Z,8.00
2023-04-24T20:23:54.190Z,8.00
2023-04-24T20:26:21.613Z,8.10
2023-04-24T20:28:49.123Z,8.00
2023-04-24T20:31:16.587Z,8.10
2023-04-24T20:33:45.561Z,8.10
2023-04-24T20:36:12.948Z,8.00
2023-04-24T20:38:40.154Z,8.00
2023-04-24T20:41:10.089Z,8.00
2023-04-24T20:43:37.337Z,8.00
2023-04-24T20:46:04.519Z,8.10
2023-04-24T20:48:32.147Z,8.10
2023-04-24T20:51:00.420Z,8.10
2023-04-24T20:53:27.561Z,8.10
2023-04-24T20:55:54.860Z,8.10
2023-04-24T20:58:23.089Z,8.10
2023-04-24T21:00:51.540Z,8.10
2023-04-24T21:03:19.229Z,8.10
2023-04-24T21:05:46.459Z,8.30
2023-04-24T21:08:13.734Z,8.10
2023-04-24T21:10:41.050Z,8.10
2023-04-24T21:13:08.174Z,8.10
2023-04-24T21:15:35.512Z,8.10
2023-04-24T21:18:03.380Z,8.10
2023-04-24T21:20:30.555Z,8.10
2023-04-24T21:22:57.680Z,8.10
2023-04-24T21:25:24.794Z,8.10
2023-04-24T21:27:51.860Z,8.20
2023-04-24T21:30:19.189Z,8.20
2023-04-24T21:32:48.569Z,8.20
2023-04-24T21:35:16.839Z,8.20
2023-04-24T21:37:44.052Z,8.20
2023-04-24T21:40:11.572Z,8.20
2023-04-24T21:42:39.481Z,8.20
2023-04-24T21:45:07.415Z,8.20
2023-04-24T21:47:34.685Z,8.20
2023-04-24T21:50:02.014Z,8.10
2023-04-24T21:52:29.273Z,8.20
2023-04-24T21:54:56.324Z,8.10
2023-04-24T21:57:23.684Z,8.00
2023-04-24T21:59:51.802Z,7.90
2023-04-24T22:02:19.061Z,7.80
2023-04-24T22:04:46.319Z,7.80
2023-04-24T22:07:13.565Z,7.70
2023-04-24T22:09:40.706Z,7.60
2023-04-24T22:12:07.862Z,7.60
2023-04-24T22:14:35.022Z,7.60
2023-04-24T22:17:03.025Z,7.60
2023-04-24T22:19:30.242Z,7.50
2023-04-24T22:21:57.499Z,7.50
2023-04-24T22:24:24.710Z,7.50
2023-04-24T22:26:51.767Z,7.50
2023-04-24T22:29:18.916Z,7.50
2023-04-24T22:31:46.207Z,7.50
2023-04-24T22:34:13.319Z,7.50
2023-04-24T22:36:40.831Z,7.40
2023-04-24T22:39:08.194Z,7.40
2023-04-24T22:41:35.327Z,7.40
2023-04-24T22:44:02.820Z,7.40
2023-04-24T22:46:31.233Z,7.40
2023-04-24T22:48:58.589Z,7.30
2023-04-24T22:51:26.169Z,7.20
2023-04-24T22:53:54.675Z,7.20
2023-04-24T22:56:21.792Z,7.10
2023-04-24T22:58:49.096Z,7.10
2023-04-24T23:01:17.560Z,7.10
2023-04-24T23:03:44.870Z,7.10
2023-04-24T23:06:12.039Z,7.10
2023-04-24T23:08:39.093Z,7.00
2023-04-24T23:11:06.248Z,7.00
2023-04-24T23:13:33.664Z,6.90
2023-04-24T23:16:00.800Z,6.90
2023-04-24T23:18:28.030Z,6.90
2023-04-24T23:20:55.137Z,6.90
2023-04-24T23:23:22.300Z,6.90
2023-04-24T23:25:49.445Z,6.80
2023-04-24T23:28:16.642Z,6.80
2023-04-24T23:30:43.893Z,6.80
2023-04-24T23:33:11.148Z,6.70
2023-04-24T23:35:38.387Z,6.80
2023-04-24T23:38:05.580Z,6.70
2023-04-24T23:40:32.652Z,6.70
2023-04-24T23:43:06.879Z,6.70
2023-04-24T23:45:35.777Z,6.70
2023-04-24T23:48:04.256Z,6.70
2023-04-24T23:50:31.493Z,6.70
2023-04-24T23:52:58.946Z,6.60
2023-04-24T23:55:26.239Z,6.60
2023-04-24T23:57:53.855Z,6.60
